Time;durP1;ratioP1;P1;durP2;ratioP2;P2;SDS_P1;SDS_P2;PMS_P1;PMS_P2;Temp;Humidity;BMP_temperature;BMP_pressure;BME280_temperature;BME280_humidity;BME280_pressure;Samples;Min_cycle;Max_cycle;Signal;HPM_P1;HPM_P2
2022/11/11 00:01:00;;;;;;;;;;;;;;;15.39;48.96;100588.25;4503677;31;34198;-87
2022/11/11 00:03:46;;;;;;;;;;;;;;;15.23;49.54;100600.19;4491035;31;32672;-87
2022/11/11 00:06:34;;;;;;;;;;;;;;;15.64;48.08;100588.63;4510208;31;34083;-88
2022/11/11 00:09:20;;;;;;;;;;;;;;;15.60;48.09;100587.69;4515380;31;33188;-88
2022/11/11 00:12:06;;;;;;;;;;;;;;;15.48;48.43;100592.75;4497851;31;35192;-89
2022/11/11 00:14:52;;;;;;;;;;;;;;;15.24;49.84;100606.31;4499295;31;34910;-90
2022/11/11 00:26:50;;;;;;;;;;;;;;;15.03;49.39;100614.62;4499122;31;33996;-86
2022/11/11 00:29:37;;;;;;;;;;;;;;;15.20;48.71;100617.56;4508445;31;33746;-87
2022/11/11 00:32:23;;;;;;;;;;;;;;;15.68;47.06;100611.38;4515223;31;33247;-89
2022/11/11 00:38:44;;;;;;;;;;;;;;;15.15;49.27;100607.00;4507875;31;35167;-89
2022/11/11 00:41:21;;;;;;;;;;;;;;;14.56;50.74;100612.91;4498758;31;33728;-88
2022/11/11 00:44:07;;;;;;;;;;;;;;;15.04;49.99;100619.03;4498070;31;33099;-89
2022/11/11 00:53:02;;;;;;;;;;;;;;;15.92;47.11;100616.97;4499018;31;35061;-87
2022/11/11 00:55:48;;;;;;;;;;;;;;;15.68;47.70;100616.59;4505593;31;34169;-88
2022/11/11 00:58:34;;;;;;;;;;;;;;;15.63;47.91;100620.84;4511440;31;34036;-89
2022/11/11 01:01:20;;;;;;;;;;;;;;;14.82;50.93;100615.12;4511866;31;34430;-87
2022/11/11 01:04:06;;;;;;;;;;;;;;;15.30;49.15;100616.84;4512191;31;33406;-88
2022/11/11 01:06:52;;;;;;;;;;;;;;;15.24;49.61;100619.38;4505693;31;33429;-90
2022/11/11 01:09:38;;;;;;;;;;;;;;;13.79;54.01;100615.59;4513975;31;35416;-87
2022/11/11 01:12:23;;;;;;;;;;;;;;;14.67;51.57;100609.63;4507980;31;34333;-88
2022/11/11 01:15:10;;;;;;;;;;;;;;;14.20;52.85;100604.28;4501068;31;34282;-88
2022/11/11 01:17:55;;;;;;;;;;;;;;;14.42;52.23;100603.00;4498520;31;33859;-87
2022/11/11 01:20:41;;;;;;;;;;;;;;;14.28;52.23;100605.31;4506933;31;34471;-87
2022/11/11 01:23:28;;;;;;;;;;;;;;;14.60;51.56;100612.09;4514398;31;34508;-89
2022/11/11 01:26:23;;;;;;;;;;;;;;;15.31;49.07;100606.44;4512802;31;33532;-87
2022/11/11 01:29:16;;;;;;;;;;;;;;;15.32;49.27;100612.53;4505586;31;33334;-87
2022/11/11 01:32:02;;;;;;;;;;;;;;;15.61;48.55;100614.72;4502066;31;34138;-87
2022/11/11 01:34:47;;;;;;;;;;;;;;;15.94;47.57;100607.41;4512612;31;33827;-88
2022/11/11 01:37:33;;;;;;;;;;;;;;;16.15;46.35;100608.56;4512792;31;34771;-86
2022/11/11 01:40:19;;;;;;;;;;;;;;;16.26;45.80;100604.34;4500386;31;33413;-88
2022/11/11 01:43:05;;;;;;;;;;;;;;;16.10;46.14;100605.00;4502940;31;34191;-88
2022/11/11 01:45:51;;;;;;;;;;;;;;;14.41;51.04;100617.78;4513414;31;34287;-87
2022/11/11 01:51:52;;;;;;;;;;;;;;;15.61;47.54;100604.25;4497597;31;32712;-88
2022/11/11 01:54:43;;;;;;;;;;;;;;;15.41;47.88;100611.78;4501968;31;34179;-88
2022/11/11 01:57:29;;;;;;;;;;;;;;;14.87;49.53;100608.25;4499847;31;34175;-88
2022/11/11 02:00:16;;;;;;;;;;;;;;;15.37;47.37;100616.09;4507674;31;34920;-88
2022/11/11 02:03:05;;;;;;;;;;;;;;;15.85;46.42;100603.78;4513766;31;33612;-88
2022/11/11 02:05:54;;;;;;;;;;;;;;;15.37;47.12;100596.91;4503004;31;35109;-87
2022/11/11 02:08:40;;;;;;;;;;;;;;;15.37;47.85;100596.91;4501811;31;35143;-87
2022/11/11 02:14:38;;;;;;;;;;;;;;;15.75;46.81;100608.00;4501097;31;33704;-87
2022/11/11 02:17:25;;;;;;;;;;;;;;;15.91;46.57;100599.53;4498212;31;34124;-89
2022/11/11 02:20:11;;;;;;;;;;;;;;;15.54;47.47;100605.91;4497820;31;35097;-88
2022/11/11 02:22:59;;;;;;;;;;;;;;;14.73;49.33;100604.50;4511345;31;34665;-88
2022/11/11 02:25:45;;;;;;;;;;;;;;;15.36;48.80;100603.88;4500792;31;33944;-89
2022/11/11 02:28:31;;;;;;;;;;;;;;;14.68;50.99;100601.81;4507902;31;33989;-88
2022/11/11 02:31:17;;;;;;;;;;;;;;;14.93;50.67;100604.91;4510447;31;33802;-89
2022/11/11 02:34:03;;;;;;;;;;;;;;;14.23;52.75;100609.56;4498837;31;33872;-89
2022/11/11 02:36:49;;;;;;;;;;;;;;;13.68;54.09;100617.06;4515749;31;32460;-88
2022/11/11 02:39:36;;;;;;;;;;;;;;;13.51;54.98;100614.03;4506135;31;33845;-89
2022/11/11 02:42:42;;;;;;;;;;;;;;;14.51;52.02;100614.56;4510304;31;36972;-88
2022/11/11 02:45:28;;;;;;;;;;;;;;;13.99;53.80;100623.84;4508057;31;33936;-88
2022/11/11 02:48:14;;;;;;;;;;;;;;;14.30;52.55;100622.78;4499717;31;34891;-88
2022/11/11 02:51:00;;;;;;;;;;;;;;;14.78;50.77;100622.03;4511928;31;34106;-88
2022/11/11 02:53:46;;;;;;;;;;;;;;;14.55;51.97;100633.75;4514184;31;34161;-87
2022/11/11 02:59:37;;;;;;;;;;;;;;;14.70;51.21;100630.53;4506029;31;33281;-89
2022/11/11 03:02:26;;;;;;;;;;;;;;;13.57;54.75;100637.66;4514360;31;33871;-87
2022/11/11 03:05:12;;;;;;;;;;;;;;;13.66;54.46;100643.91;4514475;31;34287;-89
2022/11/11 03:07:58;;;;;;;;;;;;;;;14.08;53.53;100638.81;4514424;31;34142;-88
2022/11/11 03:10:43;;;;;;;;;;;;;;;13.30;55.51;100639.59;4503880;31;33528;-86
2022/11/11 03:13:29;;;;;;;;;;;;;;;13.99;53.82;100649.91;4514883;31;34707;-90
2022/11/11 03:17:38;;;;;;;;;;;;;;;13.97;53.63;100661.16;4511824;31;33824;-89
2022/11/11 03:19:20;;;;;;;;;;;;;;;14.24;52.87;100655.66;4512685;31;34213;-87
2022/11/11 03:22:06;;;;;;;;;;;;;;;14.70;50.97;100661.88;4515497;31;33856;-89
2022/11/11 03:28:17;;;;;;;;;;;;;;;14.77;51.14;100648.09;4499748;31;34919;-90
2022/11/11 03:31:02;;;;;;;;;;;;;;;14.51;51.48;100653.69;4499522;31;34959;-89
2022/11/11 03:33:49;;;;;;;;;;;;;;;14.73;50.78;100660.19;4504593;31;33227;-88
2022/11/11 03:39:39;;;;;;;;;;;;;;;13.49;54.89;100666.97;4515656;31;35312;-89
2022/11/11 03:42:24;;;;;;;;;;;;;;;14.00;53.48;100676.88;4515558;31;34201;-89
2022/11/11 03:45:10;;;;;;;;;;;;;;;12.98;56.27;100683.84;4513762;31;33387;-87
2022/11/11 03:47:57;;;;;;;;;;;;;;;12.95;56.65;100683.75;4499498;31;34627;-88
2022/11/11 03:50:43;;;;;;;;;;;;;;;12.31;58.59;100690.59;4499379;31;33838;-88
2022/11/11 03:53:29;;;;;;;;;;;;;;;12.59;57.89;100689.69;4505897;31;34955;-88
2022/11/11 03:56:15;;;;;;;;;;;;;;;12.25;59.13;100689.53;4514917;31;32919;-87
2022/11/11 03:59:01;;;;;;;;;;;;;;;12.41;58.28;100690.03;4515276;31;35143;-87
2022/11/11 04:10:59;;;;;;;;;;;;;;;12.83;57.23;100681.69;4515345;31;33782;-88
2022/11/11 04:16:50;;;;;;;;;;;;;;;13.20;56.02;100684.41;4505372;31;34102;-89
2022/11/11 04:22:42;;;;;;;;;;;;;;;11.65;60.68;100698.88;4504351;31;35018;-87
2022/11/11 04:32:34;;;;;;;;;;;;;;;12.26;58.95;100707.78;4497494;31;31577;-88
2022/11/11 04:34:42;;;;;;;;;;;;;;;11.99;59.83;100705.19;4498554;31;33913;-87
2022/11/11 04:37:32;;;;;;;;;;;;;;;12.16;59.26;100705.75;4499422;31;34283;-89
2022/11/11 04:43:22;;;;;;;;;;;;;;;11.40;62.21;100717.06;4513767;31;33077;-87
2022/11/11 04:46:07;;;;;;;;;;;;;;;11.60;61.33;100718.63;4513301;31;33749;-89
2022/11/11 04:48:53;;;;;;;;;;;;;;;12.51;58.29;100716.31;4514867;31;34832;-89
2022/11/11 04:57:48;;;;;;;;;;;;;;;11.18;62.64;100720.66;4513891;31;34123;-89
2022/11/11 05:00:34;;;;;;;;;;;;;;;12.16;59.41;100727.41;4514474;31;34088;-87
2022/11/11 05:03:20;;;;;;;;;;;;;;;12.20;59.30;100723.19;4514552;31;35070;-88
2022/11/11 05:09:11;;;;;;;;;;;;;;;12.59;57.89;100727.84;4513176;31;34204;-89
2022/11/11 05:11:56;;;;;;;;;;;;;;;12.02;59.82;100720.91;4514419;31;34510;-89
2022/11/11 05:27:00;;;;;;;;;;;;;;;13.10;56.29;100719.72;4505993;31;34561;-88
2022/11/11 05:29:46;;;;;;;;;;;;;;;12.63;57.63;100725.37;4507987;31;33664;-88
2022/11/11 05:32:31;;;;;;;;;;;;;;;12.95;56.82;100717.59;4509246;31;35317;-87
2022/11/11 05:35:17;;;;;;;;;;;;;;;13.72;54.36;100722.28;4508091;31;34222;-88
2022/11/11 05:38:19;;;;;;;;;;;;;;;12.61;57.30;100734.88;4501944;31;33993;-88
2022/11/11 05:41:04;;;;;;;;;;;;;;;12.30;58.86;100732.16;4502385;31;34158;-88
2022/11/11 05:43:50;;;;;;;;;;;;;;;12.44;58.14;100730.88;4510539;31;34033;-87
2022/11/11 05:46:36;;;;;;;;;;;;;;;12.65;57.79;100725.41;4505705;31;34411;-86
2022/11/11 05:49:22;;;;;;;;;;;;;;;12.95;56.63;100728.00;4498321;31;35094;-86
2022/11/11 05:52:08;;;;;;;;;;;;;;;12.53;57.96;100741.53;4501109;31;33742;-85
2022/11/11 05:54:54;;;;;;;;;;;;;;;12.61;57.52;100733.94;4504402;31;34066;-87
2022/11/11 05:57:40;;;;;;;;;;;;;;;12.69;57.74;100747.19;4506655;31;34557;-87
2022/11/11 06:00:25;;;;;;;;;;;;;;;13.03;56.48;100744.75;4511463;31;34375;-90
2022/11/11 06:03:11;;;;;;;;;;;;;;;13.02;56.64;100739.47;4499460;31;34645;-89
2022/11/11 06:05:57;;;;;;;;;;;;;;;14.00;54.02;100740.31;4499941;31;34884;-88
2022/11/11 06:08:43;;;;;;;;;;;;;;;14.26;52.95;100735.72;4500067;31;34144;-88
2022/11/11 06:11:29;;;;;;;;;;;;;;;14.75;51.65;100739.44;4508467;31;34741;-88
2022/11/11 06:14:17;;;;;;;;;;;;;;;15.26;50.32;100737.81;4516057;31;33573;-88
2022/11/11 06:17:03;;;;;;;;;;;;;;;15.31;49.12;100749.28;4515426;31;33961;-88
2022/11/11 06:19:49;;;;;;;;;;;;;;;15.02;49.43;100751.31;4512050;31;34166;-91
2022/11/11 06:28:50;;;;;;;;;;;;;;;15.62;47.68;100758.53;4515745;31;33931;-90
2022/11/11 06:31:35;;;;;;;;;;;;;;;15.22;48.16;100755.19;4505566;31;34447;-89
2022/11/11 06:34:21;;;;;;;;;;;;;;;15.33;48.03;100763.22;4500072;31;35007;-90
2022/11/11 06:37:06;;;;;;;;;;;;;;;14.44;51.59;100777.03;4500101;31;33277;-89
2022/11/11 06:39:52;;;;;;;;;;;;;;;13.76;53.66;100777.13;4500253;31;34701;-88
2022/11/11 06:42:38;;;;;;;;;;;;;;;13.36;55.42;100773.44;4500098;31;35139;-90
2022/11/11 06:45:24;;;;;;;;;;;;;;;13.55;55.11;100777.41;4499842;31;34832;-88
2022/11/11 06:48:10;;;;;;;;;;;;;;;13.09;56.59;100785.69;4500088;31;33320;-88
2022/11/11 06:51:00;;;;;;;;;;;;;;;13.35;56.07;100784.72;4498752;31;33730;-89
2022/11/11 06:53:46;;;;;;;;;;;;;;;13.95;54.62;100781.06;4498845;31;35016;-89
2022/11/11 06:56:31;;;;;;;;;;;;;;;13.91;54.48;100771.41;4500061;31;35249;-91
2022/11/11 06:59:17;;;;;;;;;;;;;;;14.17;54.01;100774.66;4499686;31;33456;-89
2022/11/11 07:02:03;;;;;;;;;;;;;;;14.20;53.99;100779.03;4499986;31;34068;-90
2022/11/11 07:04:49;;;;;;;;;;;;;;;14.88;52.32;100781.47;4500047;31;34197;-90
2022/11/11 07:07:34;;;;;;;;;;;;;;;14.35;53.75;100798.53;4499269;31;34106;-90
2022/11/11 07:10:20;;;;;;;;;;;;;;;14.09;54.56;100807.47;4499929;31;33271;-88
2022/11/11 07:13:06;;;;;;;;;;;;;;;14.35;53.92;100815.94;4499928;31;33433;-89
2022/11/11 07:15:51;;;;;;;;;;;;;;;14.46;53.70;100818.78;4498833;31;33928;-88
2022/11/11 07:18:37;;;;;;;;;;;;;;;15.06;51.95;100824.53;4498862;31;34160;-90
2022/11/11 07:21:22;;;;;;;;;;;;;;;14.71;52.97;100826.38;4499739;31;33253;-88
2022/11/11 07:24:08;;;;;;;;;;;;;;;15.00;52.14;100829.63;4499818;31;34200;-90
2022/11/11 07:26:53;;;;;;;;;;;;;;;15.25;51.73;100824.91;4499653;31;34100;-89
2022/11/11 07:29:39;;;;;;;;;;;;;;;15.44;51.08;100842.72;4499700;31;33779;-88
2022/11/11 07:32:25;;;;;;;;;;;;;;;14.77;53.18;100847.41;4499853;31;32746;-88
2022/11/11 07:35:13;;;;;;;;;;;;;;;15.12;52.12;100849.91;4499725;31;35056;-90
2022/11/11 07:37:58;;;;;;;;;;;;;;;14.79;53.12;100850.06;4499347;31;34275;-89
2022/11/11 07:40:44;;;;;;;;;;;;;;;14.73;53.22;100853.38;4499708;31;34090;-89
2022/11/11 07:43:30;;;;;;;;;;;;;;;14.51;54.06;100853.75;4499615;31;33513;-88
2022/11/11 07:46:16;;;;;;;;;;;;;;;14.75;53.56;100853.44;4499284;31;34320;-90
2022/11/11 07:49:02;;;;;;;;;;;;;;;14.80;53.45;100859.63;4499588;31;34835;-87
2022/11/11 07:51:48;;;;;;;;;;;;;;;14.76;53.52;100865.62;4499452;31;35219;-87
2022/11/11 07:54:33;;;;;;;;;;;;;;;13.94;55.63;100869.66;4499749;31;33535;-90
2022/11/11 07:57:19;;;;;;;;;;;;;;;14.81;53.36;100872.75;4499700;31;34933;-90
2022/11/11 08:00:05;;;;;;;;;;;;;;;15.24;52.16;100864.97;4499444;31;34256;-88
2022/11/11 08:02:51;;;;;;;;;;;;;;;14.95;53.05;100866.94;4499397;31;33905;-90
2022/11/11 08:05:43;;;;;;;;;;;;;;;14.55;54.18;100869.53;4499737;31;33574;-88
2022/11/11 08:08:29;;;;;;;;;;;;;;;14.08;55.57;100863.09;4499406;31;33921;-87
2022/11/11 08:11:16;;;;;;;;;;;;;;;14.34;55.13;100868.97;4499287;31;34404;-87
2022/11/11 08:14:01;;;;;;;;;;;;;;;14.37;54.73;100871.66;4499223;31;34377;-89
2022/11/11 08:16:47;;;;;;;;;;;;;;;15.58;51.33;100867.41;4499481;31;34282;-90
2022/11/11 08:19:33;;;;;;;;;;;;;;;14.70;54.15;100874.22;4499540;31;34006;-88
2022/11/11 08:22:19;;;;;;;;;;;;;;;14.88;53.88;100883.31;4499352;31;34193;-89
2022/11/11 08:25:05;;;;;;;;;;;;;;;15.16;52.70;100864.81;4499349;31;34608;-89
2022/11/11 08:27:56;;;;;;;;;;;;;;;15.75;51.04;100854.66;4499524;31;34174;-90
2022/11/11 08:30:41;;;;;;;;;;;;;;;15.71;51.68;100865.94;4499400;31;34631;-90
2022/11/11 08:33:27;;;;;;;;;;;;;;;15.30;52.67;100859.84;4499412;31;34386;-90
2022/11/11 08:36:22;;;;;;;;;;;;;;;15.49;52.41;100872.47;4499539;31;34989;-88
2022/11/11 08:39:08;;;;;;;;;;;;;;;15.64;52.25;100884.03;4499195;31;33462;-88
2022/11/11 08:41:54;;;;;;;;;;;;;;;15.20;53.07;100887.53;4499042;31;784219;-88
2022/11/11 08:44:40;;;;;;;;;;;;;;;15.54;52.27;100886.50;4499359;31;34022;-90
2022/11/11 08:47:26;;;;;;;;;;;;;;;15.97;51.34;100882.09;4499153;31;33468;-88
2022/11/11 08:50:11;;;;;;;;;;;;;;;15.84;51.77;100872.28;4499108;31;34830;-88
2022/11/11 08:52:57;;;;;;;;;;;;;;;15.92;51.47;100867.19;4498985;31;33917;-91
2022/11/11 08:55:43;;;;;;;;;;;;;;;14.86;54.04;100871.97;4499027;31;34756;-91
2022/11/11 08:58:29;;;;;;;;;;;;;;;14.57;55.37;100880.00;4498849;31;33127;-90
2022/11/11 09:01:14;;;;;;;;;;;;;;;15.72;51.92;100874.66;4498797;31;33810;-88
2022/11/11 09:04:00;;;;;;;;;;;;;;;15.46;52.26;100876.75;4498835;31;34825;-91
2022/11/11 09:07:06;;;;;;;;;;;;;;;15.31;52.27;100878.19;4499002;31;34978;-90
2022/11/11 09:09:52;;;;;;;;;;;;;;;15.52;51.52;100888.19;4498732;31;34200;-90
2022/11/11 09:12:38;;;;;;;;;;;;;;;15.39;52.05;100893.16;4498916;31;34088;-90
2022/11/11 09:15:23;;;;;;;;;;;;;;;16.11;50.38;100889.34;4498803;31;34337;-90
2022/11/11 09:18:09;;;;;;;;;;;;;;;15.40;51.72;100887.06;4498901;31;34658;-91
2022/11/11 09:20:56;;;;;;;;;;;;;;;16.63;48.93;100884.94;4498546;31;33522;-88
2022/11/11 09:23:42;;;;;;;;;;;;;;;15.76;51.67;100885.22;4497583;31;35154;-91
2022/11/11 09:26:28;;;;;;;;;;;;;;;16.16;50.74;100892.91;4498432;31;34200;-90
2022/11/11 09:29:14;;;;;;;;;;;;;;;15.92;51.37;100889.00;4499294;31;33922;-88
2022/11/11 09:31:59;;;;;;;;;;;;;;;16.01;51.04;100883.91;4500650;31;33152;-89
2022/11/11 09:34:45;;;;;;;;;;;;;;;15.62;52.37;100889.25;4500780;31;33727;-90
2022/11/11 09:37:31;;;;;;;;;;;;;;;15.62;51.92;100888.37;4500592;31;35347;-91
2022/11/11 09:40:17;;;;;;;;;;;;;;;16.14;50.96;100890.28;4500383;31;34032;-90
2022/11/11 09:43:09;;;;;;;;;;;;;;;16.14;49.95;100884.13;4500608;31;33343;-89
2022/11/11 09:46:13;;;;;;;;;;;;;;;15.37;51.77;100882.62;4499253;31;34251;-88
2022/11/11 09:49:08;;;;;;;;;;;;;;;15.56;51.61;100879.53;4499634;31;34023;-90
2022/11/11 09:51:59;;;;;;;;;;;;;;;15.96;50.44;100874.25;4499038;31;34182;-88
2022/11/11 09:54:47;;;;;;;;;;;;;;;16.30;49.63;100870.47;4500179;31;33540;-90
2022/11/11 09:57:37;;;;;;;;;;;;;;;15.92;50.81;100878.53;4500289;31;33972;-87
2022/11/11 10:00:24;;;;;;;;;;;;;;;16.39;49.89;100868.00;4499400;31;34046;-88
2022/11/11 10:03:24;;;;;;;;;;;;;;;16.18;50.60;100870.28;4499250;31;33986;-88
2022/11/11 10:06:16;;;;;;;;;;;;;;;15.91;51.01;100868.03;4499184;31;33601;-90
2022/11/11 10:09:19;;;;;;;;;;;;;;;16.81;48.40;100860.81;4499309;31;34108;-88
2022/11/11 10:12:12;;;;;;;;;;;;;;;16.59;49.90;100870.06;4499370;31;34498;-92
2022/11/11 10:15:00;;;;;;;;;;;;;;;17.47;47.58;100866.06;4500317;31;34288;-88
2022/11/11 10:17:53;;;;;;;;;;;;;;;16.52;50.48;100867.34;4499338;31;33293;-90
2022/11/11 10:20:42;;;;;;;;;;;;;;;16.90;48.94;100869.69;4499288;31;34346;-91
2022/11/11 10:23:34;;;;;;;;;;;;;;;16.90;49.70;100861.84;4499100;31;33862;-91
2022/11/11 10:26:24;;;;;;;;;;;;;;;16.79;49.75;100858.19;4499242;31;34224;-91
2022/11/11 10:29:17;;;;;;;;;;;;;;;17.15;49.22;100859.53;4498978;31;33004;-90
2022/11/11 10:32:12;;;;;;;;;;;;;;;17.33;48.09;100848.41;4499236;31;34149;-88
2022/11/11 10:34:59;;;;;;;;;;;;;;;17.77;47.43;100840.19;4499950;31;33966;-89
2022/11/11 10:37:44;;;;;;;;;;;;;;;18.55;44.81;100827.72;4499120;31;34135;-87
2022/11/11 10:40:38;;;;;;;;;;;;;;;17.54;47.22;100832.03;4499236;31;33237;-91
2022/11/11 10:43:24;;;;;;;;;;;;;;;17.55;47.45;100839.06;4498949;31;34125;-90
2022/11/11 10:46:16;;;;;;;;;;;;;;;18.14;46.41;100833.53;4499913;31;34399;-92
2022/11/11 10:49:12;;;;;;;;;;;;;;;17.05;49.04;100844.53;4499893;31;34058;-90
2022/11/11 10:52:24;;;;;;;;;;;;;;;16.53;49.90;100850.78;4499271;31;34149;-88
2022/11/11 10:55:19;;;;;;;;;;;;;;;17.22;48.44;100853.53;4500100;31;34096;-91
2022/11/11 10:58:04;;;;;;;;;;;;;;;17.74;47.21;100860.25;4499941;31;34853;-89
2022/11/11 11:00:50;;;;;;;;;;;;;;;17.18;49.26;100859.59;4500041;31;34323;-91
2022/11/11 11:03:36;;;;;;;;;;;;;;;18.11;46.48;100839.66;4499749;31;34328;-88
2022/11/11 11:06:29;;;;;;;;;;;;;;;16.85;49.05;100853.00;4498770;31;34035;-88
2022/11/11 11:09:28;;;;;;;;;;;;;;;16.85;49.11;100853.00;4498791;31;34305;-90
2022/11/11 11:12:24;;;;;;;;;;;;;;;17.29;47.49;100842.25;4498851;31;35029;-89
2022/11/11 11:15:11;;;;;;;;;;;;;;;17.18;49.05;100841.25;4498912;31;34071;-92
2022/11/11 11:17:58;;;;;;;;;;;;;;;17.52;48.32;100830.28;4498739;31;35091;-91
2022/11/11 11:20:53;;;;;;;;;;;;;;;17.61;47.98;100821.62;4498351;31;35027;-89
2022/11/11 11:23:39;;;;;;;;;;;;;;;17.22;48.96;100814.22;4499875;31;35088;-91
2022/11/11 11:26:29;;;;;;;;;;;;;;;18.16;46.62;100819.56;4499764;31;33308;-88
2022/11/11 11:29:18;;;;;;;;;;;;;;;17.93;47.16;100806.25;4499250;31;33642;-88
2022/11/11 11:32:11;;;;;;;;;;;;;;;17.41;48.25;100804.81;4498859;31;34380;-88
2022/11/11 11:34:56;;;;;;;;;;;;;;;17.82;48.15;100801.78;4499535;31;34951;-91
2022/11/11 11:37:49;;;;;;;;;;;;;;;18.01;47.10;100806.31;4499535;31;33479;-90
2022/11/11 11:40:46;;;;;;;;;;;;;;;18.47;45.76;100802.28;4499532;31;34383;-88
2022/11/11 11:43:34;;;;;;;;;;;;;;;18.51;45.74;100803.19;4499671;31;34916;-91
2022/11/11 11:46:26;;;;;;;;;;;;;;;18.28;46.48;100808.28;4498692;31;34292;-88
2022/11/11 11:49:17;;;;;;;;;;;;;;;18.13;47.04;100809.03;4498502;31;34097;-90
2022/11/11 11:52:26;;;;;;;;;;;;;;;18.24;46.45;100804.75;4497923;31;34167;-92
2022/11/11 11:55:15;;;;;;;;;;;;;;;17.89;48.18;100817.59;4499565;31;34276;-88
2022/11/11 11:58:11;;;;;;;;;;;;;;;17.56;49.52;100817.22;4497924;31;34951;-90
2022/11/11 12:01:04;;;;;;;;;;;;;;;17.73;49.39;100815.66;4498495;31;34275;-90
2022/11/11 12:04:06;;;;;;;;;;;;;;;18.06;48.88;100811.59;4498024;31;34181;-88
2022/11/11 12:06:55;;;;;;;;;;;;;;;18.12;48.47;100824.78;4498599;31;34398;-91
2022/11/11 12:09:45;;;;;;;;;;;;;;;18.28;47.67;100826.66;4499482;31;34161;-89
2022/11/11 12:12:35;;;;;;;;;;;;;;;17.76;49.75;100834.06;4498530;31;33056;-91
2022/11/11 12:15:21;;;;;;;;;;;;;;;17.91;49.11;100835.94;4499492;31;34555;-90
2022/11/11 12:18:09;;;;;;;;;;;;;;;18.22;48.50;100831.84;4498954;31;34155;-88
2022/11/11 12:21:07;;;;;;;;;;;;;;;18.01;49.40;100834.31;4499550;31;34332;-89
2022/11/11 12:23:57;;;;;;;;;;;;;;;17.67;50.32;100828.69;4498475;31;33273;-91
2022/11/11 12:26:57;;;;;;;;;;;;;;;18.02;49.30;100825.56;4498496;31;33672;-88
2022/11/11 12:30:01;;;;;;;;;;;;;;;18.21;48.79;100819.59;4498243;31;34371;-88
2022/11/11 12:33:05;;;;;;;;;;;;;;;18.19;48.78;100818.72;4499051;31;34404;-91
2022/11/11 12:35:51;;;;;;;;;;;;;;;17.75;49.85;100825.31;4499001;31;33755;-88
2022/11/11 12:38:36;;;;;;;;;;;;;;;17.82;49.65;100834.13;4499010;31;33916;-91
2022/11/11 12:41:26;;;;;;;;;;;;;;;18.65;47.45;100834.81;4499058;31;34217;-91
2022/11/11 12:44:12;;;;;;;;;;;;;;;18.14;48.45;100831.78;4498066;31;33900;-91
2022/11/11 12:46:58;;;;;;;;;;;;;;;17.48;49.46;100835.47;4497899;31;33441;-88
2022/11/11 12:50:02;;;;;;;;;;;;;;;18.11;48.11;100833.53;4499042;31;34276;-90
2022/11/11 12:53:08;;;;;;;;;;;;;;;18.29;47.32;100825.78;4499087;31;34131;-91
2022/11/11 12:55:58;;;;;;;;;;;;;;;17.99;48.05;100811.56;4497645;31;34191;-89
2022/11/11 12:58:50;;;;;;;;;;;;;;;18.13;47.37;100813.41;4498091;31;33043;-90
2022/11/11 13:01:56;;;;;;;;;;;;;;;17.87;46.85;100819.31;4497857;31;35151;-88
2022/11/11 13:04:51;;;;;;;;;;;;;;;17.16;48.07;100840.31;4485568;31;32267;-91
2022/11/11 13:07:51;;;;;;;;;;;;;;;16.71;49.52;100837.09;4498940;31;34090;-89
2022/11/11 13:10:40;;;;;;;;;;;;;;;17.71;46.97;100825.25;4498901;31;33255;-88
2022/11/11 13:13:35;;;;;;;;;;;;;;;16.66;49.46;100820.41;4497933;31;34019;-88
2022/11/11 13:16:21;;;;;;;;;;;;;;;17.48;47.45;100812.75;4498439;31;33988;-92
2022/11/11 13:19:13;;;;;;;;;;;;;;;18.51;45.13;100800.56;4497414;31;33815;-91
2022/11/11 13:22:07;;;;;;;;;;;;;;;18.34;45.19;100797.84;4498725;31;33433;-88
2022/11/11 13:24:53;;;;;;;;;;;;;;;17.15;47.74;100794.03;4497415;31;35054;-90
2022/11/11 13:27:47;;;;;;;;;;;;;;;18.27;45.42;100790.78;4497416;31;34093;-91
2022/11/11 13:30:52;;;;;;;;;;;;;;;18.53;45.84;100795.34;4497039;31;34259;-91
2022/11/11 13:33:47;;;;;;;;;;;;;;;19.29;43.44;100795.72;4498533;31;33781;-91
2022/11/11 13:36:38;;;;;;;;;;;;;;;18.50;44.96;100804.06;4497540;31;34448;-91
2022/11/11 13:39:25;;;;;;;;;;;;;;;19.37;43.21;100801.00;4497483;31;35243;-87
2022/11/11 13:42:12;;;;;;;;;;;;;;;19.23;43.25;100805.34;4497385;31;33960;-88
2022/11/11 13:44:58;;;;;;;;;;;;;;;18.94;44.04;100807.00;4497317;31;34329;-92
2022/11/11 13:47:44;;;;;;;;;;;;;;;19.19;43.86;100801.81;4498165;31;34943;-90
2022/11/11 13:50:36;;;;;;;;;;;;;;;19.24;44.23;100793.94;4498153;31;33955;-92
2022/11/11 13:53:32;;;;;;;;;;;;;;;18.90;45.33;100792.09;4497083;31;34295;-89
2022/11/11 13:56:25;;;;;;;;;;;;;;;19.06;44.03;100781.62;4496843;31;33979;-91
2022/11/11 13:59:30;;;;;;;;;;;;;;;19.11;44.05;100780.75;4496742;31;34832;-91
2022/11/11 14:02:19;;;;;;;;;;;;;;;19.14;43.11;100790.41;4496740;31;33755;-87
2022/11/11 14:05:05;;;;;;;;;;;;;;;19.02;43.73;100779.87;4498006;31;33636;-89
2022/11/11 14:07:53;;;;;;;;;;;;;;;19.04;44.02;100778.97;4497988;31;34129;-91
2022/11/11 14:10:38;;;;;;;;;;;;;;;19.24;43.72;100781.66;4497657;31;34058;-91
2022/11/11 14:13:33;;;;;;;;;;;;;;;19.21;44.12;100784.31;4497933;31;34146;-89
2022/11/11 14:16:34;;;;;;;;;;;;;;;19.04;44.18;100780.72;4499086;31;34563;-87
2022/11/11 14:19:22;;;;;;;;;;;;;;;19.23;44.00;100779.03;4500127;31;33055;-91
2022/11/11 14:22:30;;;;;;;;;;;;;;;19.13;44.23;100784.28;4500280;31;34316;-91
2022/11/11 14:25:25;;;;;;;;;;;;;;;18.72;45.11;100786.72;4500054;31;35226;-90
2022/11/11 14:28:28;;;;;;;;;;;;;;;18.66;45.07;100784.91;4499797;31;34227;-87
2022/11/11 14:31:14;;;;;;;;;;;;;;;18.74;45.25;100777.09;4498485;31;32153;-88
2022/11/11 14:34:10;;;;;;;;;;;;;;;18.62;45.38;100762.09;4500128;31;34355;-87
2022/11/11 14:37:16;;;;;;;;;;;;;;;18.44;46.11;100755.00;4500003;31;33814;-87
2022/11/11 14:40:02;;;;;;;;;;;;;;;17.85;47.47;100747.59;4499813;31;35023;-88
2022/11/11 14:42:48;;;;;;;;;;;;;;;17.75;47.78;100758.84;4498815;31;33191;-91
2022/11/11 14:45:33;;;;;;;;;;;;;;;16.89;50.13;100759.63;4500004;31;34177;-87
2022/11/11 14:48:38;;;;;;;;;;;;;;;17.41;49.06;100749.75;4499819;31;34332;-87
2022/11/11 14:51:36;;;;;;;;;;;;;;;17.73;48.19;100750.06;4500044;31;33702;-90
2022/11/11 14:54:23;;;;;;;;;;;;;;;18.00;47.30;100759.97;4504716;31;32891;-88
2022/11/11 14:57:14;;;;;;;;;;;;;;;17.98;47.48;100752.06;4505118;31;34039;-85
2022/11/11 15:00:00;;;;;;;;;;;;;;;17.90;47.69;100748.50;4498648;31;34168;-86
2022/11/11 15:02:49;;;;;;;;;;;;;;;18.34;46.83;100755.81;4498455;31;34881;-86
2022/11/11 15:05:47;;;;;;;;;;;;;;;18.92;45.43;100765.78;4499626;31;34168;-87
2022/11/11 15:08:36;;;;;;;;;;;;;;;18.95;45.15;100761.44;4498226;31;34404;-87
2022/11/11 15:11:40;;;;;;;;;;;;;;;19.10;44.88;100759.75;4499142;31;34468;-87
2022/11/11 15:14:28;;;;;;;;;;;;;;;19.49;44.00;100747.56;4499598;31;34733;-88
2022/11/11 15:17:17;;;;;;;;;;;;;;;19.62;43.49;100749.34;4494983;31;34067;-86
2022/11/11 15:20:11;;;;;;;;;;;;;;;19.93;42.60;100750.25;4480056;31;33537;-86
2022/11/11 15:23:20;;;;;;;;;;;;;;;19.67;42.71;100752.88;4487614;31;35200;-86
2022/11/11 15:26:09;;;;;;;;;;;;;;;19.87;42.25;100761.66;4469558;31;33813;-87
2022/11/11 15:28:58;;;;;;;;;;;;;;;19.66;42.65;100762.53;4512131;31;33276;-87
2022/11/11 15:31:49;;;;;;;;;;;;;;;19.78;42.32;100766.06;4510684;31;32697;-87
2022/11/11 15:34:41;;;;;;;;;;;;;;;19.66;42.38;100753.72;4514460;31;34008;-86
2022/11/11 15:37:27;;;;;;;;;;;;;;;19.44;42.56;100751.06;4512679;31;34412;-87
2022/11/11 15:40:20;;;;;;;;;;;;;;;19.53;42.34;100751.94;4513858;31;33322;-87
2022/11/11 15:43:05;;;;;;;;;;;;;;;19.65;41.94;100754.63;4515490;31;34032;-86
2022/11/11 15:45:52;;;;;;;;;;;;;;;19.66;41.82;100759.91;4515484;31;34447;-88
2022/11/11 15:48:39;;;;;;;;;;;;;;;19.70;41.43;100760.78;4501756;31;35111;-88
2022/11/11 15:51:29;;;;;;;;;;;;;;;19.72;41.35;100768.66;4497781;31;33879;-88
2022/11/11 15:54:15;;;;;;;;;;;;;;;19.61;41.37;100768.63;4498906;31;34027;-88